createdAt,value
2022-09-17T00:01:24.925Z,9.20
2022-09-17T00:03:55.627Z,9.10
2022-09-17T00:06:24.602Z,9.10
2022-09-17T00:08:53.380Z,9.00
2022-09-17T00:11:25.587Z,9.00
2022-09-17T00:13:53.914Z,9.10
2022-09-17T00:16:36.138Z,9.10
2022-09-17T00:19:05.516Z,9.10
2022-09-17T00:21:32.465Z,9.10
2022-09-17T00:24:03.247Z,9.20
2022-09-17T00:26:31.737Z,9.20
2022-09-17T00:28:59.585Z,9.20
2022-09-17T00:31:28.386Z,9.30
2022-09-17T00:33:55.359Z,9.30
2022-09-17T00:36:22.411Z,9.40
2022-09-17T00:38:54.959Z,9.40
2022-09-17T00:41:23.308Z,9.40
2022-09-17T00:43:53.295Z,9.40
2022-09-17T00:46:45.341Z,9.40
2022-09-17T00:49:26.788Z,9.30
2022-09-17T00:52:02.130Z,9.20
2022-09-17T00:54:29.182Z,9.20
2022-09-17T00:56:56.986Z,9.10
2022-09-17T00:59:24.524Z,9.10
2022-09-17T01:01:51.350Z,9.10
2022-09-17T01:04:26.163Z,9.00
2022-09-17T01:07:39.864Z,9.00
2022-09-17T01:10:56.491Z,9.00
2022-09-17T01:14:02.968Z,8.90
2022-09-17T01:16:55.610Z,8.90
2022-09-17T01:19:33.320Z,8.80
2022-09-17T01:22:31.430Z,8.80
2022-09-17T01:25:18.899Z,8.80
2022-09-17T01:28:15.095Z,8.80
2022-09-17T01:31:25.925Z,8.80
2022-09-17T01:34:03.558Z,8.80
2022-09-17T01:37:00.816Z,8.90
2022-09-17T01:39:54.779Z,9.00
2022-09-17T01:42:42.838Z,9.10
2022-09-17T01:45:28.034Z,9.00
2022-09-17T01:48:07.675Z,9.00
2022-09-17T01:50:47.010Z,9.00
2022-09-17T01:53:16.770Z,9.00
2022-09-17T01:55:45.763Z,9.00
2022-09-17T01:58:35.459Z,9.10
2022-09-17T02:01:06.423Z,9.10
2022-09-17T02:03:43.861Z,9.10
2022-09-17T02:06:16.849Z,9.10
2022-09-17T02:08:54.879Z,9.00
2022-09-17T02:11:21.859Z,9.00
2022-09-17T02:14:02.332Z,8.90
2022-09-17T02:16:34.485Z,8.80
2022-09-17T02:19:18.267Z,8.90
2022-09-17T02:21:56.681Z,8.90
2022-09-17T02:25:33.925Z,8.90
2022-09-17T02:28:25.286Z,9.00
2022-09-17T02:30:52.168Z,9.00
2022-09-17T02:33:20.398Z,9.00
2022-09-17T02:35:47.439Z,9.00
2022-09-17T02:38:27.171Z,9.00
2022-09-17T02:41:10.983Z,8.90
2022-09-17T02:44:18.619Z,9.00
2022-09-17T02:47:27.959Z,9.00
2022-09-17T02:50:11.866Z,8.90
2022-09-17T02:53:06.043Z,8.90
2022-09-17T02:55:43.063Z,8.90
2022-09-17T02:58:26.880Z,8.90
2022-09-17T03:00:57.686Z,8.90
2022-09-17T03:03:39.871Z,8.80
2022-09-17T03:06:06.846Z,8.80
2022-09-17T03:08:41.249Z,8.70
2022-09-17T03:11:10.070Z,8.70
2022-09-17T03:13:37.222Z,8.60
2022-09-17T03:16:05.188Z,8.60
2022-09-17T03:18:32.368Z,8.60
2022-09-17T03:20:59.510Z,8.60
2022-09-17T03:23:27.882Z,8.50
2022-09-17T03:25:55.242Z,8.50
2022-09-17T03:28:22.507Z,8.50
2022-09-17T03:30:49.311Z,8.60
2022-09-17T03:33:16.406Z,8.50
2022-09-17T03:35:44.968Z,8.50
2022-09-17T03:38:13.000Z,8.40
2022-09-17T03:40:40.582Z,8.40
2022-09-17T03:43:07.550Z,8.30
2022-09-17T03:45:34.406Z,8.30
2022-09-17T03:48:01.416Z,8.30
2022-09-17T03:50:28.914Z,8.20
2022-09-17T03:52:55.724Z,8.20
2022-09-17T03:55:22.496Z,8.20
2022-09-17T03:57:49.514Z,8.10
2022-09-17T04:00:17.367Z,8.10
2022-09-17T04:02:44.393Z,8.00
2022-09-17T04:05:11.324Z,8.00
2022-09-17T04:07:41.000Z,7.90
2022-09-17T04:10:08.787Z,7.90
2022-09-17T04:12:35.788Z,7.80
2022-09-17T04:15:02.922Z,7.80
2022-09-17T04:17:29.695Z,7.80
2022-09-17T04:19:56.465Z,7.90
2022-09-17T04:22:23.307Z,7.90
2022-09-17T04:24:50.227Z,8.00
2022-09-17T04:27:17.071Z,8.00
2022-09-17T04:29:43.850Z,8.00
2022-09-17T04:32:10.629Z,7.90
2022-09-17T04:34:37.546Z,7.80
2022-09-17T04:37:04.402Z,7.80
2022-09-17T04:39:31.134Z,7.80
2022-09-17T04:41:57.881Z,7.80
2022-09-17T04:44:24.722Z,7.70
2022-09-17T04:46:51.532Z,7.80
2022-09-17T04:49:18.347Z,7.70
2022-09-17T04:51:45.101Z,7.70
2022-09-17T04:54:11.847Z,7.80
2022-09-17T04:56:38.606Z,7.90
2022-09-17T04:59:05.411Z,7.90
2022-09-17T05:01:32.171Z,8.00
2022-09-17T05:03:59.055Z,8.00
2022-09-17T05:06:25.866Z,8.10
2022-09-17T05:08:52.635Z,8.20
2022-09-17T05:11:19.394Z,8.30
2022-09-17T05:13:46.159Z,8.30
2022-09-17T05:16:12.986Z,8.40
2022-09-17T05:18:39.777Z,8.50
2022-09-17T05:21:06.514Z,8.50
2022-09-17T05:23:33.433Z,8.50
2022-09-17T05:26:01.089Z,8.60
2022-09-17T05:28:28.672Z,8.60
2022-09-17T05:30:59.158Z,8.60
2022-09-17T05:33:26.340Z,8.70
2022-09-17T05:35:53.450Z,8.70
2022-09-17T05:38:20.352Z,8.70
2022-09-17T05:40:48.945Z,8.70
2022-09-17T05:43:16.154Z,8.80
2022-09-17T05:45:42.934Z,8.60
2022-09-17T05:48:15.365Z,8.60
2022-09-17T05:50:43.236Z,8.60
2022-09-17T05:53:13.895Z,8.60
2022-09-17T05:55:40.875Z,8.70
2022-09-17T05:58:11.864Z,8.60
2022-09-17T06:00:39.611Z,8.70
2022-09-17T06:03:06.453Z,8.70
2022-09-17T06:05:33.285Z,8.70
2022-09-17T06:08:00.088Z,8.70
2022-09-17T06:10:26.835Z,8.80
2022-09-17T06:12:58.390Z,8.80
2022-09-17T06:15:26.663Z,8.90
2022-09-17T06:17:53.696Z,9.00
2022-09-17T06:20:21.260Z,9.10
2022-09-17T06:22:48.112Z,9.20
2022-09-17T06:25:15.156Z,9.20
2022-09-17T06:27:42.026Z,9.20
2022-09-17T06:30:09.087Z,9.20
2022-09-17T06:32:35.859Z,9.30
2022-09-17T06:35:03.153Z,9.40
2022-09-17T06:37:32.482Z,9.50
2022-09-17T06:39:59.724Z,9.50
2022-09-17T06:42:28.443Z,9.60
2022-09-17T06:44:55.196Z,9.60
2022-09-17T06:47:25.160Z,9.60
2022-09-17T06:49:52.671Z,9.70
2022-09-17T06:52:19.417Z,9.70
2022-09-17T06:54:46.195Z,9.70
2022-09-17T06:57:12.949Z,9.80
2022-09-17T06:59:39.758Z,9.90
2022-09-17T07:02:06.803Z,10.00
2022-09-17T07:04:33.590Z,10.10
2022-09-17T07:07:00.339Z,10.20
2022-09-17T07:09:27.108Z,10.20
2022-09-17T07:11:53.871Z,10.30
2022-09-17T07:14:21.077Z,10.30
2022-09-17T07:16:47.919Z,10.50
2022-09-17T07:19:15.028Z,10.70
2022-09-17T07:21:42.054Z,11.00
2022-09-17T07:24:08.886Z,11.40
2022-09-17T07:26:35.691Z,11.70
2022-09-17T07:29:02.469Z,11.70
2022-09-17T07:31:29.368Z,11.90
2022-09-17T07:33:56.165Z,12.10
2022-09-17T07:36:22.935Z,12.30
2022-09-17T07:38:49.670Z,12.40
2022-09-17T07:41:18.103Z,12.80
2022-09-17T07:43:45.458Z,13.20
2022-09-17T07:46:18.538Z,13.60
2022-09-17T07:48:46.679Z,13.90
2022-09-17T07:51:23.169Z,14.00
2022-09-17T07:53:54.825Z,14.30
2022-09-17T07:56:22.641Z,14.50
2022-09-17T07:58:50.046Z,14.50
2022-09-17T08:01:17.854Z,14.50
2022-09-17T08:03:50.448Z,14.30
2022-09-17T08:06:21.727Z,14.10
2022-09-17T08:08:49.288Z,14.00
2022-09-17T08:14:12.878Z,14.00
2022-09-17T08:16:39.907Z,13.90
2022-09-17T08:19:07.163Z,14.10
2022-09-17T08:21:33.902Z,13.90
2022-09-17T08:24:00.823Z,14.10
2022-09-17T08:26:27.871Z,13.70
2022-09-17T08:28:56.449Z,13.80
2022-09-17T08:31:26.702Z,13.60
2022-09-17T08:33:53.545Z,13.40
2022-09-17T08:36:22.583Z,13.50
2022-09-17T08:38:54.147Z,13.20
2022-09-17T08:41:41.467Z,12.90
2022-09-17T08:44:33.328Z,12.50
2022-09-17T08:47:11.399Z,12.10
2022-09-17T08:49:51.483Z,11.90
2022-09-17T08:52:39.122Z,11.50
2022-09-17T08:55:33.827Z,11.20
2022-09-17T08:58:53.186Z,11.00
2022-09-17T09:01:44.337Z,10.80
2022-09-17T09:04:58.613Z,10.80
2022-09-17T09:07:31.603Z,10.80
2022-09-17T09:10:11.703Z,10.90
2022-09-17T09:12:40.685Z,10.90
2022-09-17T09:15:35.580Z,10.90
2022-09-17T09:18:22.577Z,10.80
2022-09-17T09:21:14.614Z,10.60
2022-09-17T09:23:59.623Z,10.30
2022-09-17T09:26:45.064Z,10.20
2022-09-17T09:29:43.171Z,10.10
2022-09-17T09:32:39.542Z,10.00
2022-09-17T09:35:18.141Z,9.90
2022-09-17T09:38:12.690Z,9.90
2022-09-17T09:41:08.716Z,9.90
2022-09-17T09:44:02.552Z,9.90
2022-09-17T09:46:38.372Z,9.80
2022-09-17T09:49:22.850Z,9.80
2022-09-17T09:52:10.618Z,9.70
2022-09-17T09:55:07.834Z,9.70
2022-09-17T09:57:47.816Z,9.80
2022-09-17T10:00:43.540Z,9.80
2022-09-17T10:03:20.599Z,9.80
2022-09-17T10:06:03.158Z,9.90
2022-09-17T10:08:40.062Z,10.00
2022-09-17T10:11:13.032Z,10.20
2022-09-17T10:13:40.739Z,10.30
2022-09-17T10:16:25.322Z,10.30
2022-09-17T10:19:07.619Z,10.60
2022-09-17T10:21:39.447Z,10.90
2022-09-17T10:24:31.899Z,11.00
2022-09-17T10:27:05.897Z,11.00
2022-09-17T10:29:34.154Z,11.30
2022-09-17T10:32:01.424Z,11.30
2022-09-17T10:34:32.809Z,11.30
2022-09-17T10:36:59.804Z,11.30
2022-09-17T10:39:46.598Z,11.50
2022-09-17T10:42:18.900Z,11.60
2022-09-17T10:45:00.840Z,11.70
2022-09-17T10:47:34.398Z,11.70
2022-09-17T10:50:05.679Z,11.70
2022-09-17T10:52:38.414Z,11.60
2022-09-17T10:55:25.955Z,11.40
2022-09-17T10:58:09.698Z,11.20
2022-09-17T11:01:07.511Z,11.00
2022-09-17T11:03:39.686Z,10.80
2022-09-17T11:06:28.037Z,11.00
2022-09-17T11:09:47.238Z,11.50
2022-09-17T11:12:56.803Z,12.60
2022-09-17T11:15:39.770Z,13.40
2022-09-17T11:18:36.787Z,13.70
2022-09-17T11:21:36.634Z,14.40
2022-09-17T11:24:25.236Z,14.40
2022-09-17T11:28:01.199Z,13.70
2022-09-17T11:30:49.450Z,13.30
2022-09-17T11:33:38.456Z,12.60
2022-09-17T11:36:18.225Z,12.50
2022-09-17T11:38:53.400Z,12.80
2022-09-17T11:41:31.685Z,13.00
2022-09-17T11:44:22.794Z,13.60
2022-09-17T11:47:01.287Z,14.10
2022-09-17T11:50:09.159Z,14.70
2022-09-17T11:52:44.351Z,15.10
2022-09-17T11:55:38.167Z,15.70
2022-09-17T11:58:40.162Z,15.00
2022-09-17T12:01:17.079Z,14.50
2022-09-17T12:04:03.258Z,13.90
2022-09-17T12:06:49.313Z,14.00
2022-09-17T12:09:26.001Z,14.90
2022-09-17T12:12:47.583Z,15.60
2022-09-17T12:15:33.370Z,16.00
2022-09-17T12:18:39.536Z,15.70
2022-09-17T12:21:08.800Z,15.00
2022-09-17T12:23:46.889Z,13.90
2022-09-17T12:26:32.542Z,13.70
2022-09-17T12:29:07.863Z,13.60
2022-09-17T12:32:15.290Z,14.70
2022-09-17T12:35:18.738Z,15.70
2022-09-17T12:38:09.890Z,16.80
2022-09-17T12:40:41.248Z,16.90
2022-09-17T12:43:39.440Z,18.50
2022-09-17T12:46:28.347Z,20.20
2022-09-17T12:49:15.712Z,20.60
2022-09-17T12:52:03.272Z,21.00
2022-09-17T12:54:59.059Z,20.00
2022-09-17T12:57:52.843Z,19.90
2022-09-17T13:00:19.863Z,20.10
2022-09-17T13:03:11.551Z,19.90
2022-09-17T13:06:31.416Z,20.80
2022-09-17T13:09:19.281Z,22.30
2022-09-17T13:12:04.501Z,21.80
2022-09-17T13:18:13.306Z,19.80
2022-09-17T13:21:20.235Z,19.30
2022-09-17T13:23:50.287Z,20.00
2022-09-17T13:26:20.412Z,22.20
2022-09-17T13:28:50.504Z,23.20
2022-09-17T13:31:44.392Z,24.20
2022-09-17T13:34:17.262Z,24.80
2022-09-17T13:36:50.336Z,25.10
2022-09-17T13:39:44.066Z,25.60
2022-09-17T13:42:37.128Z,26.20
2022-09-17T13:45:13.208Z,25.10
2022-09-17T13:47:55.064Z,23.00
2022-09-17T13:50:27.899Z,20.50
2022-09-17T13:52:58.418Z,18.80
2022-09-17T13:55:48.055Z,18.00
2022-09-17T13:58:20.751Z,17.50
2022-09-17T14:01:07.649Z,17.20
2022-09-17T14:03:48.374Z,18.10
2022-09-17T14:06:15.046Z,21.60
2022-09-17T14:08:45.073Z,22.70
2022-09-17T14:11:33.406Z,24.40
2022-09-17T14:14:03.029Z,25.90
2022-09-17T14:16:36.789Z,26.40
2022-09-17T14:19:30.358Z,24.80
2022-09-17T14:22:06.418Z,22.50
2022-09-17T14:24:52.376Z,20.10
2022-09-17T14:27:44.127Z,18.80
2022-09-17T14:30:23.264Z,20.10
2022-09-17T14:33:09.069Z,20.50
2022-09-17T14:35:46.611Z,20.10
2022-09-17T14:38:21.952Z,18.90
2022-09-17T14:41:09.315Z,18.10
2022-09-17T14:43:54.736Z,17.50
2022-09-17T14:46:39.678Z,17.30
2022-09-17T14:49:26.563Z,17.20
2022-09-17T14:51:54.921Z,16.80
2022-09-17T14:54:35.172Z,16.20
2022-09-17T14:57:19.548Z,15.80
2022-09-17T14:59:53.059Z,15.20
2022-09-17T15:02:26.820Z,15.00
2022-09-17T15:04:53.957Z,14.50
2022-09-17T15:07:21.934Z,14.10
2022-09-17T15:09:50.433Z,13.80
2022-09-17T15:12:19.045Z,13.40
2022-09-17T15:14:47.837Z,13.30
2022-09-17T15:17:21.447Z,13.20
2022-09-17T15:19:54.342Z,13.00
2022-09-17T15:22:28.563Z,12.90
2022-09-17T15:25:04.585Z,12.60
2022-09-17T15:27:41.807Z,12.40
2022-09-17T15:30:20.143Z,12.10
2022-09-17T15:33:00.382Z,12.20
2022-09-17T15:35:32.307Z,12.20
2022-09-17T15:38:23.701Z,12.30
2022-09-17T15:40:51.613Z,12.30
2022-09-17T15:43:33.891Z,12.30
2022-09-17T15:46:32.532Z,12.20
2022-09-17T15:49:02.190Z,12.20
2022-09-17T15:51:32.217Z,12.10
2022-09-17T15:54:04.837Z,12.10
2022-09-17T15:56:34.706Z,12.30
2022-09-17T15:59:04.709Z,12.20
2022-09-17T16:01:37.983Z,12.10
2022-09-17T16:04:27.447Z,12.30
2022-09-17T16:07:17.964Z,12.30
2022-09-17T16:09:52.717Z,12.40
2022-09-17T16:12:23.526Z,12.40
2022-09-17T16:14:54.449Z,12.40
2022-09-17T16:17:44.830Z,12.30
2022-09-17T16:20:24.796Z,12.30
2022-09-17T16:22:53.366Z,12.50
2022-09-17T16:25:25.139Z,12.70
2022-09-17T16:28:08.231Z,12.80
2022-09-17T16:30:34.998Z,12.70
2022-09-17T16:33:03.800Z,12.60
2022-09-17T16:35:30.566Z,12.40
2022-09-17T16:37:57.876Z,12.20
2022-09-17T16:40:28.157Z,12.10
2022-09-17T16:42:55.244Z,12.00
2022-09-17T16:45:25.380Z,11.90
2022-09-17T16:47:54.920Z,11.70
2022-09-17T16:50:21.681Z,11.50
2022-09-17T16:52:49.347Z,11.50
2022-09-17T16:55:18.175Z,11.30
2022-09-17T16:57:45.564Z,11.20
2022-09-17T17:00:17.088Z,11.10
2022-09-17T17:02:44.821Z,11.10
2022-09-17T17:05:11.778Z,10.90
2022-09-17T17:07:38.600Z,10.80
2022-09-17T17:10:08.914Z,10.70
2022-09-17T17:12:36.827Z,10.70
2022-09-17T17:15:06.107Z,10.70
2022-09-17T17:17:35.590Z,10.60
2022-09-17T17:20:07.726Z,10.50
2022-09-17T17:22:34.513Z,10.50
2022-09-17T17:25:01.361Z,10.50
2022-09-17T17:27:29.187Z,10.40
2022-09-17T17:29:55.999Z,10.30
2022-09-17T17:32:22.781Z,10.30
2022-09-17T17:34:50.525Z,10.20
2022-09-17T17:37:17.790Z,10.10
2022-09-17T17:39:44.562Z,10.10
2022-09-17T17:42:11.304Z,10.00
2022-09-17T17:44:38.087Z,10.00
2022-09-17T17:47:06.570Z,9.90
2022-09-17T17:49:33.803Z,9.90
2022-09-17T17:52:01.218Z,9.80
2022-09-17T17:54:28.930Z,9.80
2022-09-17T17:56:56.325Z,9.70
2022-09-17T17:59:23.386Z,9.60
2022-09-17T18:01:50.289Z,9.60
2022-09-17T18:04:17.259Z,9.60
2022-09-17T18:06:44.040Z,9.60
2022-09-17T18:09:10.779Z,9.50
2022-09-17T18:11:37.534Z,9.60
2022-09-17T18:14:04.343Z,9.50
2022-09-17T18:16:31.154Z,9.50
2022-09-17T18:19:01.200Z,9.60
2022-09-17T18:21:28.197Z,9.60
2022-09-17T18:23:54.972Z,9.60
2022-09-17T18:26:27.418Z,9.70
2022-09-17T18:28:54.919Z,9.60
2022-09-17T18:31:34.304Z,9.60
2022-09-17T18:34:02.433Z,9.70
2022-09-17T18:36:33.165Z,9.60
2022-09-17T18:39:32.813Z,9.70
2022-09-17T18:41:51.114Z,9.60
2022-09-17T18:44:20.593Z,9.70
2022-09-17T18:46:49.410Z,9.70
2022-09-17T18:49:16.240Z,9.70
2022-09-17T18:51:43.176Z,9.70
2022-09-17T18:54:12.472Z,9.60
2022-09-17T18:56:41.349Z,9.50
2022-09-17T18:59:09.067Z,9.60
2022-09-17T19:01:36.163Z,9.60
2022-09-17T19:04:03.500Z,9.60
2022-09-17T19:06:32.035Z,9.70
2022-09-17T19:09:03.796Z,9.80
2022-09-17T19:11:30.587Z,9.80
2022-09-17T19:13:57.506Z,9.70
2022-09-17T19:16:24.375Z,9.90
2022-09-17T19:18:51.402Z,9.90
2022-09-17T19:21:21.477Z,9.80
2022-09-17T19:23:50.782Z,9.70
2022-09-17T19:26:23.984Z,9.70
2022-09-17T19:29:00.276Z,9.70
2022-09-17T19:31:28.024Z,9.70
2022-09-17T19:33:56.446Z,9.70
2022-09-17T19:36:23.204Z,9.60
2022-09-17T19:38:50.018Z,9.60
2022-09-17T19:41:20.176Z,9.70
2022-09-17T19:43:47.736Z,9.70
2022-09-17T19:46:24.269Z,9.70
2022-09-17T19:48:54.106Z,9.80
2022-09-17T19:51:24.159Z,9.80
2022-09-17T19:53:52.113Z,9.70
2022-09-17T19:56:24.470Z,9.60
2022-09-17T19:58:51.691Z,9.60
2022-09-17T20:01:20.051Z,9.50
2022-09-17T20:03:47.355Z,9.50
2022-09-17T20:06:17.114Z,9.50
2022-09-17T20:08:49.604Z,9.50
2022-09-17T20:11:18.366Z,9.60
2022-09-17T20:13:45.447Z,9.60
2022-09-17T20:16:19.991Z,9.40
2022-09-17T20:18:47.598Z,9.40
2022-09-17T20:21:20.827Z,9.50
2022-09-17T20:23:47.677Z,9.40
2022-09-17T20:26:15.838Z,9.40
2022-09-17T20:28:43.539Z,9.30
2022-09-17T20:31:20.441Z,9.40
2022-09-17T20:33:50.470Z,9.40
2022-09-17T20:36:19.783Z,9.40
2022-09-17T20:41:35.967Z,9.20
2022-09-17T20:44:02.940Z,9.20
2022-09-17T20:46:29.980Z,9.20
2022-09-17T20:48:58.239Z,9.20
2022-09-17T20:51:28.394Z,9.10
2022-09-17T20:53:56.998Z,9.20
2022-09-17T20:56:26.997Z,9.10
2022-09-17T20:59:13.531Z,9.00
2022-09-17T21:01:42.923Z,9.20
2022-09-17T21:04:10.179Z,9.20
2022-09-17T21:06:41.025Z,9.20
2022-09-17T21:09:15.565Z,9.20
2022-09-17T21:11:47.395Z,9.30
2022-09-17T21:14:15.899Z,9.30
2022-09-17T21:16:43.260Z,9.30
2022-09-17T21:19:12.472Z,9.30
2022-09-17T21:21:39.250Z,9.30
2022-09-17T21:24:09.179Z,9.20
2022-09-17T21:26:36.220Z,9.10
2022-09-17T21:29:03.367Z,9.00
2022-09-17T21:31:33.653Z,9.00
2022-09-17T21:34:04.356Z,9.00
2022-09-17T21:36:35.088Z,8.90
2022-09-17T21:39:10.584Z,8.80
2022-09-17T21:41:41.559Z,8.70
2022-09-17T21:44:10.559Z,8.70
2022-09-17T21:46:38.062Z,8.80
2022-09-17T21:49:05.543Z,8.80
2022-09-17T21:51:41.994Z,8.80
2022-09-17T21:54:12.704Z,8.80
2022-09-17T21:56:39.854Z,8.80
2022-09-17T21:59:09.103Z,8.80
2022-09-17T22:01:40.316Z,8.70
2022-09-17T22:04:15.780Z,8.70
2022-09-17T22:06:44.117Z,8.70
2022-09-17T22:09:30.262Z,8.60
2022-09-17T22:11:57.030Z,8.60
2022-09-17T22:14:25.265Z,8.60
2022-09-17T22:16:56.734Z,8.50
2022-09-17T22:19:24.550Z,8.50
2022-09-17T22:21:54.480Z,8.40
2022-09-17T22:24:22.316Z,8.40
2022-09-17T22:26:57.309Z,8.30
2022-09-17T22:29:27.234Z,8.30
2022-09-17T22:31:54.054Z,8.20
2022-09-17T22:34:22.930Z,8.30
2022-09-17T22:36:50.351Z,8.20
2022-09-17T22:39:20.464Z,8.10
2022-09-17T22:41:47.979Z,8.20
2022-09-17T22:44:20.036Z,8.10
2022-09-17T22:46:50.513Z,8.10
2022-09-17T22:49:19.120Z,8.10
2022-09-17T22:51:47.195Z,8.10
2022-09-17T22:54:17.371Z,8.10
2022-09-17T22:56:45.461Z,8.10
2022-09-17T22:59:12.922Z,8.10
2022-09-17T23:01:40.896Z,8.20
2022-09-17T23:04:07.842Z,8.20
2022-09-17T23:06:38.202Z,8.20
2022-09-17T23:09:05.407Z,8.20
2022-09-17T23:11:35.549Z,8.20
2022-09-17T23:14:05.574Z,8.10
2022-09-17T23:16:44.638Z,8.20
2022-09-17T23:19:12.589Z,8.20
2022-09-17T23:21:39.868Z,8.20
2022-09-17T23:24:07.566Z,8.20
2022-09-17T23:26:34.684Z,8.10
2022-09-17T23:29:05.225Z,8.10
2022-09-17T23:31:34.714Z,8.10
2022-09-17T23:34:02.067Z,8.10
2022-09-17T23:36:35.752Z,8.10
2022-09-17T23:39:04.196Z,8.10
2022-09-17T23:41:36.924Z,8.00
2022-09-17T23:44:12.094Z,8.10
2022-09-17T23:46:42.010Z,8.00
2022-09-17T23:49:11.699Z,8.00
2022-09-17T23:51:38.744Z,8.00
2022-09-17T23:54:06.960Z,8.10
2022-09-17T23:56:34.402Z,8.10
2022-09-17T23:59:02.374Z,8.00
